Time;durP1;ratioP1;P1;durP2;ratioP2;P2;SDS_P1;SDS_P2;PMS_P1;PMS_P2;Temp;Humidity;BMP_temperature;BMP_pressure;BME280_temperature;BME280_humidity;BME280_pressure;Samples;Min_cycle;Max_cycle;Signal;HPM_P1;HPM_P2
2022/10/04 00:02:18;;;;;;;6.87;5.60;;;;;;;3.95;100.00;96978.31;6132362;23;20396;-77
2022/10/04 00:05:14;;;;;;;7.03;5.23;;;;;;;4.25;100.00;97019.28;6103305;23;20400;-77
2022/10/04 00:07:55;;;;;;;4.37;3.83;;;;;;;4.41;100.00;97044.38;6127294;23;20432;-77
2022/10/04 00:10:32;;;;;;;9.93;6.00;;;;;;;4.47;100.00;97057.44;6153500;23;20456;-77
2022/10/04 00:13:14;;;;;;;7.73;6.30;;;;;;;4.42;100.00;97050.38;6127201;23;20399;-77
2022/10/04 00:15:49;;;;;;;7.17;5.90;;;;;;;4.26;100.00;97033.16;6102396;23;20408;-77
2022/10/04 00:18:28;;;;;;;12.30;6.00;;;;;;;4.50;100.00;97067.34;6153559;23;20415;-77
2022/10/04 00:21:01;;;;;;;5.57;5.07;;;;;;;4.37;100.00;97074.72;6103685;23;20392;-77
2022/10/04 00:23:40;;;;;;;9.13;4.70;;;;;;;4.09;100.00;97072.72;6128162;23;20376;-77
2022/10/04 00:26:27;;;;;;;8.30;5.93;;;;;;;4.19;100.00;97074.53;6126935;23;20403;-77
2022/10/04 00:29:21;;;;;;;14.30;4.83;;;;;;;4.00;100.00;97037.69;6127004;23;20455;-77
2022/10/04 00:32:14;;;;;;;15.57;6.00;;;;;;;4.24;100.00;97075.31;6127255;23;20424;-77
2022/10/04 00:34:52;;;;;;;10.80;5.03;;;;;;;4.25;100.00;97079.47;6127806;23;20416;-77
2022/10/04 00:37:27;;;;;;;11.63;5.03;;;;;;;3.98;100.00;97066.72;6126957;23;20412;-77
2022/10/04 00:40:00;;;;;;;8.40;5.87;;;;;;;3.52;100.00;97039.88;6153416;23;20379;-77
2022/10/04 00:42:44;;;;;;;11.40;4.73;;;;;;;3.70;100.00;97049.00;6103238;23;20391;-77
2022/10/04 00:45:21;;;;;;;4.90;4.40;;;;;;;3.70;100.00;97075.16;6127358;23;20396;-77
2022/10/04 00:48:08;;;;;;;5.83;4.70;;;;;;;3.72;100.00;97039.84;6103621;23;20436;-77
2022/10/04 00:50:42;;;;;;;6.33;4.67;;;;;;;3.94;100.00;97065.69;6127342;23;20464;-77
2022/10/04 00:53:18;;;;;;;7.93;4.37;;;;;;;3.88;100.00;97026.75;6128120;23;20365;-77
2022/10/04 00:56:01;;;;;;;5.20;4.50;;;;;;;3.70;100.00;97026.25;6127516;23;20478;-77
2022/10/04 00:58:35;;;;;;;6.93;4.00;;;;;;;3.31;100.00;97005.13;6153630;23;20400;-77
2022/10/04 01:01:04;;;;;;;7.40;4.57;;;;;;;2.90;100.00;96960.72;6128568;23;20402;-77
2022/10/04 01:03:37;;;;;;;8.93;4.83;;;;;;;3.41;100.00;97025.25;6155324;23;20408;-77
2022/10/04 01:06:09;;;;;;;10.53;5.57;;;;;;;3.36;100.00;96999.91;6155349;23;20439;-77
2022/10/04 01:08:47;;;;;;;11.00;6.53;;;;;;;3.68;100.00;97053.72;6104701;23;20423;-77
2022/10/04 01:11:27;;;;;;;6.80;3.93;;;;;;;3.74;100.00;97055.25;6128861;23;20450;-77
2022/10/04 01:14:11;;;;;;;12.90;4.67;;;;;;;3.23;100.00;96985.53;6129501;23;20400;-77
2022/10/04 01:16:48;;;;;;;4.50;3.87;;;;;;;3.46;100.00;97056.59;6129131;23;20427;-77
2022/10/04 01:19:23;;;;;;;7.63;4.10;;;;;;;3.56;100.00;97057.38;6130083;23;20416;-77
2022/10/04 01:22:10;;;;;;;7.50;4.60;;;;;;;3.33;100.00;97037.00;6128660;23;20491;-77
2022/10/04 01:24:44;;;;;;;4.50;3.60;;;;;;;3.55;100.00;97049.81;6129678;23;20369;-77
2022/10/04 01:27:45;;;;;;;9.73;3.77;;;;;;;3.44;100.00;97025.50;6128477;23;20418;-77
2022/10/04 01:30:16;;;;;;;6.03;4.80;;;;;;;3.60;100.00;97043.78;6073706;23;20404;-77
2022/10/04 01:32:50;;;;;;;9.53;5.50;;;;;;;3.30;100.00;97008.78;6128430;23;20573;-77
2022/10/04 01:35:19;;;;;;;5.97;4.47;;;;;;;3.59;100.00;97045.59;6128863;23;20459;-77
2022/10/04 01:37:50;;;;;;;5.47;4.57;;;;;;;3.60;100.00;97038.53;6128998;23;20424;-77
2022/10/04 01:40:19;;;;;;;6.67;5.43;;;;;;;2.94;100.00;96953.94;6105108;23;20470;-77
2022/10/04 01:42:53;;;;;;;6.53;5.93;;;;;;;2.80;100.00;96942.41;6129014;23;20424;-77
2022/10/04 01:45:46;;;;;;;12.03;6.07;;;;;;;3.38;100.00;97041.44;6155379;23;20397;-77
2022/10/04 01:48:24;;;;;;;4.40;4.00;;;;;;;3.20;100.00;97014.78;6129733;23;20436;-77
2022/10/04 01:51:03;;;;;;;3.50;3.20;;;;;;;3.41;100.00;97015.56;6131291;23;20403;-77
2022/10/04 01:53:56;;;;;;;4.77;4.27;;;;;;;3.46;100.00;97025.22;6139450;23;20403;-77
2022/10/04 01:56:41;;;;;;;7.53;4.10;;;;;;;3.12;100.00;97007.47;6143242;23;20415;-76
2022/10/04 01:59:38;;;;;;;6.53;3.60;;;;;;;3.20;100.00;97020.00;6142118;23;20432;-77
2022/10/04 02:02:44;;;;;;;4.23;3.73;;;;;;;2.65;100.00;96919.72;6086670;23;20400;-77
2022/10/04 02:05:19;;;;;;;5.43;3.87;;;;;;;3.22;100.00;97006.72;6106048;23;20407;-77
2022/10/04 02:07:49;;;;;;;11.63;6.03;;;;;;;3.05;100.00;96969.59;6128391;23;20426;-77
2022/10/04 02:10:29;;;;;;;4.50;4.17;;;;;;;3.32;100.00;97005.91;6128913;23;20391;-77
2022/10/04 02:12:57;;;;;;;7.80;5.30;;;;;;;2.89;100.00;96959.16;6154528;23;20982;-77
2022/10/04 02:15:38;;;;;;;6.47;4.33;;;;;;;3.29;100.00;97019.50;6128430;23;20446;-77
2022/10/04 02:18:17;;;;;;;14.40;4.80;;;;;;;3.28;100.00;97008.25;6127906;23;20493;-77
2022/10/04 02:20:57;;;;;;;13.53;5.43;;;;;;;3.21;100.00;97002.53;6154687;23;20390;-77
2022/10/04 02:23:28;;;;;;;7.87;4.30;;;;;;;3.02;100.00;96986.56;6104125;23;20400;-76
2022/10/04 02:25:57;;;;;;;7.00;4.90;;;;;;;3.11;100.00;97018.97;6128120;23;20403;-76
2022/10/04 02:28:29;;;;;;;11.17;6.43;;;;;;;3.15;100.00;97011.41;6127766;23;20451;-76
2022/10/04 02:34:09;;;;;;;10.67;6.00;;;;;;;3.14;100.00;97033.34;6070890;23;20433;-79
2022/10/04 02:36:41;;;;;;;9.40;5.93;;;;;;;2.88;100.00;97011.63;6147203;23;20400;-79
2022/10/04 02:39:13;;;;;;;11.53;5.90;;;;;;;3.08;100.00;97008.28;6130364;23;20450;-79
2022/10/04 02:41:47;;;;;;;9.03;6.40;;;;;;;3.21;100.00;97021.59;6156743;23;20372;-79
2022/10/04 02:44:36;;;;;;;8.20;6.13;;;;;;;3.10;100.00;96993.91;6130950;23;20411;-79
2022/10/04 02:47:15;;;;;;;17.23;5.93;;;;;;;3.10;100.00;96995.72;6156926;23;20392;-79
2022/10/04 02:49:51;;;;;;;6.13;5.53;;;;;;;3.01;100.00;96995.47;6131204;23;20449;-79
2022/10/04 02:52:29;;;;;;;12.97;5.80;;;;;;;2.99;100.00;96992.31;6157085;23;20408;-79
2022/10/04 02:55:26;;;;;;;10.20;6.77;;;;;;;2.98;100.00;96988.16;6106417;23;20404;-79
2022/10/04 02:57:57;;;;;;;7.90;5.57;;;;;;;2.93;100.00;96975.84;6106750;23;20599;-79
2022/10/04 03:00:30;;;;;;;21.30;5.47;;;;;;;2.67;100.00;96971.66;6131438;23;20380;-78
2022/10/04 03:03:22;;;;;;;12.40;5.63;;;;;;;2.92;100.00;96989.19;6130412;23;20392;-79
2022/10/04 03:06:17;;;;;;;11.60;5.63;;;;;;;2.89;100.00;97000.16;6130867;23;20407;-79
2022/10/04 03:08:50;;;;;;;11.93;5.50;;;;;;;2.71;100.00;97000.66;6130266;23;20458;-79
2022/10/04 03:11:31;;;;;;;7.93;5.77;;;;;;;2.61;100.00;96983.91;6130182;23;20404;-79
2022/10/04 03:14:09;;;;;;;10.20;5.83;;;;;;;2.71;100.00;97005.88;6129869;23;20882;-79
2022/10/04 03:16:42;;;;;;;13.77;5.80;;;;;;;2.48;100.00;96945.28;6106940;23;20396;-79
2022/10/04 03:19:12;;;;;;;8.33;5.80;;;;;;;2.43;100.00;96934.84;6130360;23;20443;-78
2022/10/04 03:21:46;;;;;;;7.80;5.50;;;;;;;2.58;100.00;96966.19;6130479;23;20399;-78
2022/10/04 03:24:21;;;;;;;16.73;6.00;;;;;;;2.72;100.00;96979.50;6129738;23;20403;-79
2022/10/04 03:26:53;;;;;;;7.80;5.70;;;;;;;2.35;100.00;96945.75;6105979;23;20406;-78
2022/10/04 03:29:26;;;;;;;8.17;4.80;;;;;;;2.37;100.00;96957.50;6156670;23;20406;-79
2022/10/04 03:32:04;;;;;;;5.97;4.10;;;;;;;2.69;100.00;96982.66;6130848;23;20439;-79
2022/10/04 03:34:42;;;;;;;7.77;4.70;;;;;;;2.28;100.00;96937.41;6131935;23;20384;-79
2022/10/04 03:37:15;;;;;;;7.57;4.70;;;;;;;2.40;100.00;96942.38;6130869;23;20396;-79
2022/10/04 03:39:56;;;;;;;6.40;4.60;;;;;;;2.62;100.00;96966.44;6108901;23;20462;-79
2022/10/04 03:42:29;;;;;;;17.73;6.00;;;;;;;2.60;100.00;96971.13;6130664;23;20407;-78
2022/10/04 03:45:18;;;;;;;19.77;6.07;;;;;;;2.61;100.00;96973.47;6148813;23;20364;-78
2022/10/04 03:47:49;;;;;;;7.80;5.70;;;;;;;2.62;100.00;96953.38;6149449;23;20428;-78
2022/10/04 03:50:24;;;;;;;10.00;5.97;;;;;;;2.29;100.00;96865.94;6126647;23;20427;-78
2022/10/04 03:53:07;;;;;;;21.03;6.07;;;;;;;2.91;100.00;96954.44;6174857;23;20428;-78
2022/10/04 03:55:47;;;;;;;20.97;5.73;;;;;;;2.92;100.00;96963.06;6140572;23;20364;-76
2022/10/04 03:58:22;;;;;;;6.77;4.33;;;;;;;2.76;100.00;96957.06;6127528;23;20932;-76
2022/10/04 04:01:12;;;;;;;8.97;5.10;;;;;;;2.78;100.00;96970.63;6103751;23;20434;-76
2022/10/04 04:04:20;;;;;;;23.20;6.80;;;;;;;2.84;100.00;96969.59;6153396;23;20371;-76
2022/10/04 04:07:12;;;;;;;5.63;5.00;;;;;;;2.77;100.00;96926.50;6126226;23;20890;-76
2022/10/04 04:10:09;;;;;;;11.70;4.77;;;;;;;2.61;100.00;96921.28;6127726;23;20400;-76
2022/10/04 04:13:00;;;;;;;13.70;6.30;;;;;;;2.77;100.00;96952.63;6128791;23;20486;-76
2022/10/04 04:15:32;;;;;;;9.20;5.20;;;;;;;2.82;100.00;96927.31;6127643;23;20364;-76
2022/10/04 04:18:10;;;;;;;11.13;7.10;;;;;;;3.06;100.00;96965.94;6127006;23;20427;-76
2022/10/04 04:20:48;;;;;;;8.53;6.40;;;;;;;2.77;100.00;96942.94;6153275;23;20839;-76
2022/10/04 04:23:34;;;;;;;10.90;6.43;;;;;;;2.96;100.00;96962.28;6152124;23;20402;-76
2022/10/04 04:26:38;;;;;;;5.83;5.27;;;;;;;3.13;100.00;96982.91;6126955;23;20396;-76
2022/10/04 04:30:00;;;;;;;8.30;5.53;;;;;;;3.08;100.00;96990.00;6126906;23;20430;-76
2022/10/04 04:32:56;;;;;;;5.37;4.20;;;;;;;3.13;100.00;96972.47;6058589;23;20443;-76
2022/10/04 04:35:37;;;;;;;7.40;6.80;;;;;;;3.00;100.00;96964.38;6132718;23;20376;-76
2022/10/04 04:38:18;;;;;;;6.67;4.77;;;;;;;2.88;100.00;96943.75;6129162;23;20435;-76
2022/10/04 04:40:47;;;;;;;4.63;3.97;;;;;;;2.91;100.00;96930.94;6129140;23;20427;-76
2022/10/04 04:43:19;;;;;;;7.73;6.13;;;;;;;3.12;100.00;96962.28;6155482;23;20361;-76
2022/10/04 04:45:49;;;;;;;6.33;4.87;;;;;;;3.22;100.00;96976.13;6128986;23;20407;-77
2022/10/04 04:48:37;;;;;;;5.67;4.17;;;;;;;3.08;100.00;96963.88;6110322;23;20894;-77
2022/10/04 04:51:24;;;;;;;6.90;5.37;;;;;;;3.11;100.00;96958.91;6156828;23;20925;-77
2022/10/04 04:53:56;;;;;;;15.73;6.17;;;;;;;2.97;100.00;96958.63;6130664;23;20430;-77
2022/10/04 04:56:31;;;;;;;10.13;5.70;;;;;;;2.80;100.00;96941.63;6130781;23;20462;-77
2022/10/04 04:59:06;;;;;;;12.47;5.00;;;;;;;2.76;100.00;96951.03;6106938;23;20427;-77
2022/10/04 05:01:48;;;;;;;9.10;5.80;;;;;;;2.88;100.00;96944.53;6132067;23;20474;-78
2022/10/04 05:04:22;;;;;;;11.57;5.87;;;;;;;2.52;100.00;96914.22;6130707;23;20371;-77
2022/10/04 05:07:15;;;;;;;8.53;5.40;;;;;;;2.77;100.00;96963.06;6106994;23;20466;-78
2022/10/04 05:09:43;;;;;;;6.17;5.50;;;;;;;2.70;100.00;96968.53;6082686;23;20500;-77
2022/10/04 05:12:15;;;;;;;6.93;4.87;;;;;;;2.86;100.00;96956.28;6106487;23;20431;-78
2022/10/04 05:14:48;;;;;;;5.40;4.63;;;;;;;2.97;100.00;96950.81;6130242;23;20882;-77
2022/10/04 05:17:29;;;;;;;8.97;5.27;;;;;;;3.15;100.00;96931.19;6129755;23;20392;-77
2022/10/04 05:20:02;;;;;;;9.23;4.70;;;;;;;3.02;100.00;96929.13;6156196;23;20767;-77
2022/10/04 05:22:40;;;;;;;6.13;5.33;;;;;;;3.31;100.00;96963.31;6130614;23;20400;-77
2022/10/04 05:25:17;;;;;;;5.43;4.60;;;;;;;3.55;100.00;96974.78;6130971;23;20467;-77
2022/10/04 05:27:45;;;;;;;6.93;6.23;;;;;;;3.50;100.00;96963.56;6106745;23;20431;-77
2022/10/04 05:30:27;;;;;;;13.40;6.33;;;;;;;3.59;100.00;96974.22;6130476;23;20388;-77
2022/10/04 05:33:03;;;;;;;7.93;6.30;;;;;;;3.50;100.00;96966.94;6165433;23;20420;-78
2022/10/04 05:35:55;;;;;;;9.17;6.70;;;;;;;3.54;100.00;96978.44;6121097;23;20477;-78
2022/10/04 05:38:48;;;;;;;14.73;9.43;;;;;;;3.59;100.00;96979.47;6118953;23;20419;-78
2022/10/04 05:41:24;;;;;;;11.47;5.67;;;;;;;3.38;100.00;96978.72;6146070;23;20388;-78
2022/10/04 05:44:00;;;;;;;6.27;5.63;;;;;;;3.37;100.00;96980.56;6144909;23;20479;-77
2022/10/04 05:46:33;;;;;;;5.97;5.20;;;;;;;3.18;100.00;96933.28;6146164;23;20482;-78
2022/10/04 05:49:09;;;;;;;7.50;5.70;;;;;;;3.34;100.00;96986.31;6147155;23;20434;-80
2022/10/04 05:52:11;;;;;;;9.60;6.93;;;;;;;3.36;100.00;96973.00;6149461;23;20384;-77
2022/10/04 05:54:41;;;;;;;14.93;7.33;;;;;;;3.49;100.00;96973.22;6141172;23;20404;-78
2022/10/04 05:57:49;;;;;;;15.03;9.30;;;;;;;3.33;100.00;96945.53;6171189;23;20399;-77
2022/10/04 06:00:39;;;;;;;17.43;11.60;;;;;;;3.52;100.00;96983.16;6124107;23;20410;-78
2022/10/04 06:03:43;;;;;;;23.87;12.77;;;;;;;3.68;100.00;97007.44;6158708;23;20399;-75
2022/10/04 06:06:28;;;;;;;11.90;8.60;;;;;;;3.67;100.00;97003.25;6155264;23;20391;-77
2022/10/04 06:09:25;;;;;;;10.67;7.30;;;;;;;3.50;100.00;96974.78;6155802;23;20472;-76
2022/10/04 06:12:10;;;;;;;13.20;8.60;;;;;;;3.71;100.00;96999.03;6132134;23;20403;-77
2022/10/04 06:14:58;;;;;;;15.27;10.57;;;;;;;3.56;100.00;96973.72;6156304;23;20471;-77
2022/10/04 06:17:40;;;;;;;7.40;5.90;;;;;;;3.82;100.00;97005.81;6156649;23;20479;-77
2022/10/04 06:20:15;;;;;;;14.23;7.60;;;;;;;3.85;100.00;97009.72;6150113;23;20741;-79
2022/10/04 06:22:46;;;;;;;12.47;8.60;;;;;;;3.53;100.00;96978.69;6130991;23;20882;-78
2022/10/04 06:25:25;;;;;;;10.47;7.80;;;;;;;3.65;100.00;96996.72;6157326;23;20727;-78
2022/10/04 06:28:23;;;;;;;8.37;4.90;;;;;;;3.51;100.00;96993.88;6157629;23;20401;-78
2022/10/04 06:31:31;;;;;;;7.83;6.50;;;;;;;3.54;100.00;96998.56;6081332;23;20434;-78
2022/10/04 06:34:33;;;;;;;13.10;5.10;;;;;;;3.73;100.00;96985.69;6131492;23;20451;-78
2022/10/04 06:37:24;;;;;;;6.03;4.33;;;;;;;3.82;100.00;96984.91;6131237;23;20736;-78
2022/10/04 06:40:34;;;;;;;6.67;4.53;;;;;;;3.80;100.00;96994.06;6132240;23;20387;-78
2022/10/04 06:43:29;;;;;;;10.43;4.87;;;;;;;3.82;100.00;96995.38;6107397;23;20399;-78
2022/10/04 06:46:35;;;;;;;6.57;4.60;;;;;;;3.88;100.00;96993.53;6130938;23;20393;-78
2022/10/04 06:49:40;;;;;;;6.33;4.30;;;;;;;3.94;100.00;96971.53;6131349;23;20426;-78
2022/10/04 06:52:46;;;;;;;4.83;3.80;;;;;;;3.90;100.00;96954.81;6130695;23;20422;-78
2022/10/04 06:55:45;;;;;;;5.57;3.63;;;;;;;4.14;100.00;96997.63;6130775;23;20443;-78
2022/10/04 06:59:20;;;;;;;4.20;3.73;;;;;;;4.09;100.00;97002.88;6156223;23;20428;-78
2022/10/04 07:01:51;;;;;;;5.33;4.87;;;;;;;4.14;100.00;97013.34;6019403;23;20390;-78
2022/10/04 07:04:25;;;;;;;9.10;5.17;;;;;;;4.14;100.00;97005.47;6067278;23;20375;-78
2022/10/04 07:10:36;;;;;;;4.93;4.43;;;;;;;4.31;100.00;97010.38;6037093;23;20407;-78
2022/10/04 07:13:03;;;;;;;7.23;4.47;;;;;;;4.32;100.00;97014.56;6011512;23;20439;-78
2022/10/04 07:15:43;;;;;;;5.57;4.77;;;;;;;4.27;100.00;97003.31;6053260;23;20843;-78
2022/10/04 07:18:18;;;;;;;5.83;4.87;;;;;;;4.13;100.00;96977.72;6039764;23;20430;-78
2022/10/04 07:20:47;;;;;;;9.40;6.17;;;;;;;3.98;100.00;96972.53;6064441;23;20727;-77
2022/10/04 07:23:23;;;;;;;7.13;5.30;;;;;;;4.30;100.00;97002.78;6063845;23;20430;-77
2022/10/04 07:26:07;;;;;;;10.30;6.00;;;;;;;4.37;100.00;97013.75;6017087;23;20406;-77
2022/10/04 07:31:33;;;;;;;7.47;5.50;;;;;;;4.40;100.00;97019.22;6043947;23;20489;-78
2022/10/04 07:34:09;;;;;;;6.77;4.30;;;;;;;4.54;100.00;97023.88;6103790;23;21199;-78
2022/10/04 07:36:56;;;;;;;6.37;5.60;;;;;;;4.59;100.00;97045.59;6128451;23;20368;-77
2022/10/04 07:39:42;;;;;;;6.13;5.10;;;;;;;4.49;100.00;97008.19;6154187;23;20486;-78
2022/10/04 07:42:35;;;;;;;9.27;5.03;;;;;;;4.80;100.00;97035.78;6127851;23;20400;-77
2022/10/04 07:45:07;;;;;;;5.27;3.50;;;;;;;4.40;100.00;96979.16;6127765;23;20423;-77
2022/10/04 07:47:34;;;;;;;6.57;4.40;;;;;;;4.86;100.00;97026.84;6153913;23;20890;-77
2022/10/04 07:50:23;;;;;;;4.20;3.77;;;;;;;5.09;100.00;97037.72;6104205;23;20399;-77
2022/10/04 07:53:19;;;;;;;8.80;5.50;;;;;;;4.82;100.00;97017.97;6128416;23;20411;-78
2022/10/04 07:55:56;;;;;;;6.37;5.43;;;;;;;4.62;100.00;97012.84;6154846;23;20703;-77
2022/10/04 07:58:43;;;;;;;13.73;6.30;;;;;;;4.97;100.00;97044.06;6153643;23;20395;-77
2022/10/04 08:01:32;;;;;;;8.03;5.60;;;;;;;4.91;100.00;97054.84;6103699;23;20400;-77
2022/10/04 08:04:31;;;;;;;9.93;6.13;;;;;;;5.02;100.00;97048.47;6153776;23;20365;-77
2022/10/04 08:07:01;;;;;;;6.37;5.70;;;;;;;5.21;100.00;97051.25;6153610;23;20375;-78
2022/10/04 08:09:35;;;;;;;8.40;5.40;;;;;;;5.30;100.00;97045.13;6102937;23;20431;-77
2022/10/04 08:12:11;;;;;;;5.20;4.33;;;;;;;5.62;100.00;97052.50;6153553;23;20368;-77
2022/10/04 08:15:15;;;;;;;5.90;4.13;;;;;;;5.57;100.00;97063.00;6127275;23;20431;-77
2022/10/04 08:18:40;;;;;;;5.40;4.50;;;;;;;5.56;100.00;97063.28;6153375;23;20498;-78
2022/10/04 08:21:13;;;;;;;7.77;4.40;;;;;;;5.68;100.00;97060.31;6039308;23;21089;-77
2022/10/04 08:24:10;;;;;;;6.77;3.57;;;;;;;5.77;100.00;97054.19;6039490;23;20470;-78
2022/10/04 08:27:21;;;;;;;11.00;4.03;;;;;;;5.72;100.00;97028.00;6103797;23;20399;-77
2022/10/04 08:29:50;;;;;;;7.57;3.97;;;;;;;6.16;100.00;97056.72;6125934;23;20400;-78
2022/10/04 08:32:22;;;;;;;4.03;3.70;;;;;;;6.16;100.00;97053.31;6127175;23;20434;-78
2022/10/04 08:35:15;;;;;;;4.87;4.47;;;;;;;6.15;100.00;97059.63;6127143;23;20423;-78
2022/10/04 08:38:01;;;;;;;5.50;4.87;;;;;;;5.79;100.00;97025.06;6127411;23;21190;-78
2022/10/04 08:41:14;;;;;;;5.10;4.60;;;;;;;6.11;100.00;97064.63;6102882;23;20400;-78
2022/10/04 08:44:12;;;;;;;5.53;4.43;;;;;;;6.42;100.00;97062.47;6127502;23;20403;-78
2022/10/04 08:47:04;;;;;;;4.47;4.07;;;;;;;6.69;100.00;97068.97;6127894;23;20391;-78
2022/10/04 08:50:23;;;;;;;4.50;4.10;;;;;;;6.72;100.00;97048.16;6153505;23;20407;-79
2022/10/04 08:53:15;;;;;;;5.73;5.23;;;;;;;6.70;100.00;97070.53;6039113;23;20442;-78
2022/10/04 08:56:09;;;;;;;5.03;4.53;;;;;;;6.87;100.00;97064.78;6127484;23;20487;-78
2022/10/04 08:58:51;;;;;;;5.33;4.60;;;;;;;7.05;100.00;97066.63;6127864;23;20399;-78
2022/10/04 09:01:40;;;;;;;4.93;3.60;;;;;;;6.89;100.00;97016.13;6103914;23;20434;-78
2022/10/04 09:04:32;;;;;;;5.17;4.63;;;;;;;7.46;100.00;97071.28;6103400;23;20392;-78
2022/10/04 09:07:10;;;;;;;4.70;4.20;;;;;;;7.58;100.00;97075.03;6127760;23;20392;-79
2022/10/04 09:10:12;;;;;;;4.97;4.57;;;;;;;7.36;100.00;97028.31;6104266;23;20404;-79
2022/10/04 09:12:56;;;;;;;5.77;5.17;;;;;;;7.55;100.00;97044.03;6128285;23;20399;-78
2022/10/04 09:15:36;;;;;;;9.80;5.07;;;;;;;7.55;100.00;97051.94;6104502;23;20460;-78
2022/10/04 09:18:31;;;;;;;5.27;4.80;;;;;;;7.93;100.00;97078.94;6129179;23;20424;-78
2022/10/04 09:21:10;;;;;;;5.53;4.53;;;;;;;7.69;100.00;97028.28;6129258;23;20371;-78
2022/10/04 09:23:36;;;;;;;7.47;6.27;;;;;;;8.28;100.00;97074.09;6129486;23;20400;-78
2022/10/04 09:26:18;;;;;;;11.30;8.00;;;;;;;8.51;100.00;97069.72;6105611;23;20414;-78
2022/10/04 09:28:57;;;;;;;7.70;5.97;;;;;;;8.75;100.00;97070.28;6129440;23;20502;-78
2022/10/04 09:32:18;;;;;;;6.37;5.37;;;;;;;8.95;100.00;97087.56;6129627;23;20428;-78
2022/10/04 09:35:05;;;;;;;7.90;4.70;;;;;;;9.08;100.00;97088.56;6041323;23;20433;-78
2022/10/04 09:37:56;;;;;;;4.30;3.60;;;;;;;8.88;100.00;97085.31;6126339;23;20423;-79
2022/10/04 09:40:52;;;;;;;6.37;4.23;;;;;;;8.48;100.00;97036.06;6129616;23;20384;-78
2022/10/04 09:44:00;;;;;;;4.50;3.77;;;;;;;8.43;100.00;97013.22;6129596;23;20399;-78
2022/10/04 09:46:50;;;;;;;6.50;5.80;;;;;;;8.89;100.00;97092.13;6156022;23;20380;-78
2022/10/04 09:49:31;;;;;;;6.83;5.73;;;;;;;9.09;100.00;97082.25;6065594;23;20466;-79
2022/10/04 09:52:16;;;;;;;6.60;5.47;;;;;;;9.00;100.00;97076.09;6104685;23;20403;-79
2022/10/04 09:54:55;;;;;;;8.33;6.63;;;;;;;8.79;100.00;97039.59;6129191;23;20816;-78
2022/10/04 09:58:06;;;;;;;7.07;6.37;;;;;;;9.30;100.00;97064.09;6104533;23;20399;-78
2022/10/04 10:00:53;;;;;;;8.53;6.20;;;;;;;9.07;100.00;97035.03;6106253;23;20732;-79
2022/10/04 10:03:52;;;;;;;5.70;4.77;;;;;;;9.35;100.00;97069.25;6156315;23;20392;-79
2022/10/04 10:06:34;;;;;;;11.10;4.60;;;;;;;9.67;100.00;97055.03;6096280;23;20418;-78
2022/10/04 10:09:10;;;;;;;5.50;4.33;;;;;;;9.65;100.00;97081.72;6130128;23;20404;-79
2022/10/04 10:14:46;;;;;;;4.33;3.70;;;;;;;9.91;100.00;97084.53;6129960;23;20442;-79
2022/10/04 10:17:36;;;;;;;4.93;4.43;;;;;;;9.35;100.00;97032.31;6130776;23;20383;-80
2022/10/04 10:20:22;;;;;;;5.23;4.67;;;;;;;9.84;100.00;97078.09;6106235;23;20407;-79
2022/10/04 10:23:05;;;;;;;4.60;4.20;;;;;;;9.63;100.00;97019.75;6155958;23;20491;-79
2022/10/04 10:26:06;;;;;;;7.00;4.80;;;;;;;10.20;100.00;97070.81;6106735;23;20490;-79
2022/10/04 10:29:11;;;;;;;5.50;3.93;;;;;;;10.14;100.00;97079.19;6130761;23;20449;-79
2022/10/04 10:31:53;;;;;;;4.83;4.00;;;;;;;10.55;100.00;97074.41;6130856;23;20395;-79
2022/10/04 10:34:52;;;;;;;6.53;4.30;;;;;;;10.32;100.00;97076.34;6131607;23;20754;-79
2022/10/04 10:37:52;;;;;;;6.93;5.03;;;;;;;10.42;100.00;97080.59;6131532;23;20411;-79
2022/10/04 10:40:40;;;;;;;7.73;5.40;;;;;;;10.19;100.00;97032.28;6106148;23;20396;-79
2022/10/04 10:43:14;;;;;;;5.40;4.10;;;;;;;10.40;100.00;97079.31;6107190;23;20408;-79
2022/10/04 10:46:03;;;;;;;4.87;4.40;;;;;;;10.64;100.00;97074.41;6143254;23;20930;-79
2022/10/04 10:49:05;;;;;;;5.20;4.33;;;;;;;10.64;100.00;97083.13;6118221;23;20427;-79
2022/10/04 10:51:41;;;;;;;5.40;4.40;;;;;;;11.04;100.00;97087.56;6094582;23;20399;-79
2022/10/04 10:54:32;;;;;;;4.93;3.23;;;;;;;11.44;100.00;97073.09;6169168;23;20407;-79
2022/10/04 10:57:23;;;;;;;3.53;3.00;;;;;;;11.70;100.00;97082.88;6141462;23;20388;-80
2022/10/04 11:00:21;;;;;;;6.87;4.60;;;;;;;11.50;100.00;97063.13;6143871;23;20407;-80
2022/10/04 11:03:00;;;;;;;5.30;3.70;;;;;;;11.54;100.00;97074.66;6140260;23;20404;-80
2022/10/04 11:05:51;;;;;;;4.67;3.97;;;;;;;11.24;100.00;97068.44;6118248;23;20396;-80
2022/10/04 11:08:35;;;;;;;4.40;3.90;;;;;;;11.34;100.00;97070.75;6116994;23;20964;-79
2022/10/04 11:11:33;;;;;;;5.43;4.40;;;;;;;11.30;100.00;97069.03;6141781;23;20391;-79
2022/10/04 11:14:47;;;;;;;5.23;4.03;;;;;;;11.37;100.00;97035.72;6111724;23;20428;-80
2022/10/04 11:17:26;;;;;;;6.87;4.00;;;;;;;11.81;100.00;97057.66;6162999;23;20376;-79
2022/10/04 11:20:17;;;;;;;5.63;4.77;;;;;;;11.73;100.00;97047.81;6135722;23;20396;-80
2022/10/04 11:23:21;;;;;;;5.43;3.47;;;;;;;11.63;100.00;97053.44;6136737;23;20395;-80
2022/10/04 11:26:26;;;;;;;5.70;3.50;;;;;;;11.98;100.00;97054.16;6133571;23;20469;-80
2022/10/04 11:29:09;;;;;;;3.80;3.20;;;;;;;12.53;100.00;97043.47;6132269;23;20419;-79
2022/10/04 11:31:54;;;;;;;4.40;2.20;;;;;;;13.24;100.00;97066.63;6158217;23;20396;-79
2022/10/04 11:34:58;;;;;;;5.53;2.30;;;;;;;13.56;100.00;97070.41;6131267;23;20411;-79
2022/10/04 11:37:46;;;;;;;4.80;1.60;;;;;;;14.01;100.00;97069.63;6131254;23;20414;-80
2022/10/04 11:41:02;;;;;;;4.97;2.40;;;;;;;14.68;100.00;97081.69;6131296;23;20889;-79
2022/10/04 11:43:59;;;;;;;3.73;1.60;;;;;;;14.81;100.00;97079.78;6134775;23;20400;-81
2022/10/04 11:47:01;;;;;;;2.07;1.60;;;;;;;15.18;100.00;97075.94;6131716;23;20811;-80
2022/10/04 11:49:55;;;;;;;2.37;1.37;;;;;;;15.55;100.00;97065.19;6089139;23;20451;-80
2022/10/04 11:52:25;;;;;;;5.80;1.87;;;;;;;15.55;100.00;97076.59;6094456;23;20414;-80
2022/10/04 11:54:57;;;;;;;6.23;1.80;;;;;;;16.12;100.00;97072.00;6107739;23;20442;-80
2022/10/04 11:57:55;;;;;;;2.33;1.80;;;;;;;16.20;100.00;97071.84;6132386;23;21246;-80
2022/10/04 12:00:25;;;;;;;2.50;1.60;;;;;;;16.76;100.00;97078.91;6132344;23;20396;-80
2022/10/04 12:03:26;;;;;;;8.73;1.63;;;;;;;16.11;84.86;97078.47;6132073;23;20434;-80
2022/10/04 12:06:21;;;;;;;1.80;1.57;;;;;;;16.32;83.94;97083.56;6132269;23;20438;-80
2022/10/04 12:08:54;;;;;;;1.50;1.30;;;;;;;16.59;85.87;97080.03;6132013;23;21241;-80
2022/10/04 12:15:10;;;;;;;2.53;2.00;;;;;;;17.51;89.34;97062.53;6157755;23;20408;-79
2022/10/04 12:17:41;;;;;;;2.80;2.10;;;;;;;17.10;88.78;97061.34;6131391;23;20818;-80
2022/10/04 12:20:38;;;;;;;3.90;2.60;;;;;;;17.54;88.49;97063.72;6131824;23;20439;-80
2022/10/04 12:23:11;;;;;;;2.37;2.00;;;;;;;17.89;88.66;97064.41;6131369;23;20449;-80
2022/10/04 12:26:16;;;;;;;1.87;1.73;;;;;;;17.41;87.04;97036.34;6107520;23;20404;-80
2022/10/04 12:29:24;;;;;;;2.90;1.77;;;;;;;17.79;85.63;97064.22;6131594;23;20427;-80
2022/10/04 12:31:58;;;;;;;2.37;1.70;;;;;;;17.99;83.66;97063.81;6132467;23;20427;-80
2022/10/04 12:34:39;;;;;;;1.80;1.47;;;;;;;18.35;81.62;97044.91;6132246;23;20419;-80
2022/10/04 12:37:21;;;;;;;3.97;2.10;;;;;;;18.01;79.91;97007.25;6131635;23;20406;-80
2022/10/04 12:40:17;;;;;;;2.97;2.10;;;;;;;17.58;80.31;97022.53;6157741;23;20432;-80
2022/10/04 12:43:03;;;;;;;3.30;1.97;;;;;;;17.76;84.15;97028.22;6107436;23;20898;-80
2022/10/04 12:45:38;;;;;;;2.47;2.27;;;;;;;18.23;83.23;97052.00;6132075;23;20454;-80
2022/10/04 12:48:13;;;;;;;1.73;1.50;;;;;;;18.60;80.97;97057.53;6107758;23;20423;-80
2022/10/04 12:50:46;;;;;;;3.20;2.47;;;;;;;17.57;83.62;97042.41;6158537;23;20487;-80
2022/10/04 12:53:30;;;;;;;4.83;2.10;;;;;;;16.83;84.10;97044.34;6132268;23;20372;-80
2022/10/04 12:56:20;;;;;;;4.97;2.80;;;;;;;16.92;86.78;97034.22;6158656;23;20422;-80
2022/10/04 12:59:05;;;;;;;2.20;2.00;;;;;;;17.23;83.58;97033.34;6133115;23;20420;-80
2022/10/04 13:01:43;;;;;;;5.70;1.90;;;;;;;17.41;82.60;97012.31;6109483;23;20431;-80
2022/10/04 13:04:31;;;;;;;2.47;1.90;;;;;;;17.58;81.91;97035.91;6133589;23;20410;-80
2022/10/04 13:07:09;;;;;;;4.47;1.60;;;;;;;18.19;80.41;97043.13;6133463;23;20419;-80
2022/10/04 13:10:18;;;;;;;3.60;1.43;;;;;;;18.39;77.80;97037.69;6133872;23;20399;-80